createdAt,value
2018-06-17T00:01:50.772Z,17.20
2018-06-17T00:04:20.441Z,17.10
2018-06-17T00:06:49.767Z,17.00
2018-06-17T00:09:21.349Z,16.90
2018-06-17T00:12:36.000Z,16.90
2018-06-17T00:15:14.899Z,16.90
2018-06-17T00:17:44.618Z,16.90
2018-06-17T00:20:14.854Z,16.90
2018-06-17T00:22:46.523Z,17.00
2018-06-17T00:25:17.558Z,16.90
2018-06-17T00:27:50.482Z,16.90
2018-06-17T00:30:19.955Z,16.70
2018-06-17T00:32:50.856Z,16.70
2018-06-17T00:35:20.158Z,16.60
2018-06-17T00:37:54.357Z,16.60
2018-06-17T00:40:24.837Z,16.50
2018-06-17T00:42:54.476Z,16.60
2018-06-17T00:45:23.995Z,16.60
2018-06-17T00:47:54.747Z,16.50
2018-06-17T00:50:30.263Z,16.50
2018-06-17T00:53:08.923Z,16.40
2018-06-17T00:55:38.725Z,16.40
2018-06-17T00:58:13.907Z,16.50
2018-06-17T01:00:47.669Z,16.40
2018-06-17T01:03:23.449Z,16.30
2018-06-17T01:05:53.658Z,16.30
2018-06-17T01:08:34.120Z,16.30
2018-06-17T01:11:27.128Z,16.30
2018-06-17T01:14:03.081Z,16.30
2018-06-17T01:16:33.646Z,16.40
2018-06-17T01:19:03.548Z,16.40
2018-06-17T01:21:33.226Z,16.30
2018-06-17T01:24:02.982Z,16.20
2018-06-17T01:26:33.348Z,16.10
2018-06-17T01:29:06.731Z,16.10
2018-06-17T01:31:36.023Z,16.10
2018-06-17T01:34:05.389Z,16.10
2018-06-17T01:36:34.642Z,16.10
2018-06-17T01:39:04.473Z,16.10
2018-06-17T01:41:34.337Z,16.10
2018-06-17T01:44:12.909Z,16.00
2018-06-17T01:46:45.001Z,15.90
2018-06-17T01:49:14.405Z,15.90
2018-06-17T01:51:51.464Z,15.90
2018-06-17T01:54:29.867Z,15.90
2018-06-17T01:57:04.132Z,15.90
2018-06-17T01:59:36.670Z,15.90
2018-06-17T02:02:10.932Z,15.90
2018-06-17T02:04:50.357Z,15.80
2018-06-17T02:07:26.024Z,15.80
2018-06-17T02:10:02.292Z,15.80
2018-06-17T02:12:32.771Z,15.70
2018-06-17T02:15:17.573Z,15.70
2018-06-17T02:17:54.301Z,15.70
2018-06-17T02:20:37.449Z,15.70
2018-06-17T02:23:10.169Z,15.70
2018-06-17T02:25:39.370Z,15.60
2018-06-17T02:28:09.006Z,15.70
2018-06-17T02:30:45.571Z,15.60
2018-06-17T02:33:21.134Z,15.70
2018-06-17T02:35:56.619Z,15.70
2018-06-17T02:38:29.004Z,15.70
2018-06-17T02:41:00.463Z,15.80
2018-06-17T02:43:32.130Z,15.90
2018-06-17T02:48:52.812Z,15.90
2018-06-17T02:51:36.889Z,15.90
2018-06-17T02:54:12.583Z,15.90
2018-06-17T02:56:42.205Z,15.90
2018-06-17T02:59:21.387Z,15.90
2018-06-17T03:02:09.288Z,15.90
2018-06-17T03:04:44.568Z,15.90
2018-06-17T03:07:14.318Z,15.90
2018-06-17T03:09:43.313Z,15.80
2018-06-17T03:12:15.580Z,15.80
2018-06-17T03:14:52.457Z,15.80
2018-06-17T03:17:30.274Z,15.70
2018-06-17T03:20:03.182Z,15.60
2018-06-17T03:22:40.336Z,15.60
2018-06-17T03:25:16.365Z,15.60
2018-06-17T03:27:53.270Z,15.60
2018-06-17T03:30:30.832Z,15.60
2018-06-17T03:33:10.792Z,15.60
2018-06-17T03:35:45.566Z,15.50
2018-06-17T03:38:15.212Z,15.50
2018-06-17T03:40:45.635Z,15.60
2018-06-17T03:43:14.645Z,15.60
2018-06-17T03:45:44.043Z,15.60
2018-06-17T03:48:13.060Z,15.70
2018-06-17T03:50:43.239Z,15.70
2018-06-17T03:53:12.674Z,15.70
2018-06-17T03:55:48.250Z,15.70
2018-06-17T03:58:19.913Z,15.80
2018-06-17T04:00:50.331Z,15.90
2018-06-17T04:03:19.561Z,15.90
2018-06-17T04:05:49.550Z,15.80
2018-06-17T04:08:18.656Z,15.80
2018-06-17T04:10:47.913Z,15.80
2018-06-17T04:13:17.730Z,15.80
2018-06-17T04:15:46.947Z,15.80
2018-06-17T04:18:16.136Z,15.80
2018-06-17T04:20:45.286Z,15.80
2018-06-17T04:23:15.281Z,15.80
2018-06-17T04:25:44.251Z,15.80
2018-06-17T04:28:13.335Z,15.90
2018-06-17T04:30:42.321Z,15.90
2018-06-17T04:33:12.726Z,15.80
2018-06-17T04:38:11.779Z,15.90
2018-06-17T04:40:40.726Z,16.00
2018-06-17T04:43:09.908Z,16.00
2018-06-17T04:45:39.191Z,16.00
2018-06-17T04:48:09.054Z,16.00
2018-06-17T04:50:39.294Z,16.00
2018-06-17T04:55:51.067Z,16.00
2018-06-17T04:58:30.252Z,16.10
2018-06-17T05:00:59.983Z,16.20
2018-06-17T05:03:29.183Z,16.20
2018-06-17T05:05:58.489Z,16.20
2018-06-17T05:08:28.204Z,16.30
2018-06-17T05:10:57.258Z,16.30
2018-06-17T05:13:26.559Z,16.30
2018-06-17T05:15:55.809Z,16.40
2018-06-17T05:18:25.311Z,16.40
2018-06-17T05:20:54.703Z,16.50
2018-06-17T05:23:24.293Z,16.60
2018-06-17T05:25:53.787Z,16.60
2018-06-17T05:28:24.013Z,16.60
2018-06-17T05:30:52.963Z,16.70
2018-06-17T05:33:22.825Z,16.80
2018-06-17T05:35:56.786Z,16.90
2018-06-17T05:40:54.603Z,16.90
2018-06-17T05:43:24.142Z,16.80
2018-06-17T05:45:53.514Z,16.90
2018-06-17T05:48:22.958Z,17.00
2018-06-17T05:50:52.813Z,17.10
2018-06-17T05:55:51.167Z,17.30
2018-06-17T06:03:19.291Z,17.30
2018-06-17T06:05:48.915Z,17.50
2018-06-17T06:08:19.372Z,17.50
2018-06-17T06:10:48.788Z,17.40
2018-06-17T06:13:20.307Z,17.40
2018-06-17T06:15:50.286Z,17.50
2018-06-17T06:18:19.737Z,17.60
2018-06-17T06:20:49.553Z,17.60
2018-06-17T06:23:19.839Z,17.70
2018-06-17T06:25:51.882Z,17.90
2018-06-17T06:28:26.270Z,18.20
2018-06-17T06:30:55.347Z,18.30
2018-06-17T06:33:30.964Z,18.40
2018-06-17T06:36:05.655Z,18.60
2018-06-17T06:38:35.683Z,18.80
2018-06-17T06:41:05.959Z,18.80
2018-06-17T06:46:11.353Z,18.70
2018-06-17T06:48:40.617Z,18.90
2018-06-17T06:53:46.101Z,18.70
2018-06-17T06:58:48.598Z,18.70
2018-06-17T07:01:34.929Z,18.90
2018-06-17T07:04:15.173Z,19.10
2018-06-17T07:06:56.004Z,19.40
2018-06-17T07:09:36.375Z,19.70
2018-06-17T07:12:07.327Z,19.70
2018-06-17T07:14:47.683Z,19.70
2018-06-17T07:17:28.892Z,19.90
2018-06-17T07:19:58.323Z,20.30
2018-06-17T07:22:27.538Z,20.30
2018-06-17T07:24:56.863Z,20.30
2018-06-17T07:27:36.916Z,20.20
2018-06-17T07:30:06.019Z,20.10
2018-06-17T07:32:35.216Z,20.20
2018-06-17T07:35:04.272Z,20.50
2018-06-17T07:37:37.097Z,20.70
2018-06-17T07:40:48.574Z,20.80
2018-06-17T07:43:17.622Z,20.90
2018-06-17T07:45:46.821Z,21.00
2018-06-17T07:48:27.318Z,21.20
2018-06-17T07:51:07.459Z,21.30
2018-06-17T07:53:36.551Z,21.30
2018-06-17T07:56:05.694Z,21.20
2018-06-17T07:58:34.848Z,21.40
2018-06-17T08:01:05.022Z,21.10
2018-06-17T08:03:34.106Z,20.70
2018-06-17T08:06:03.361Z,20.90
2018-06-17T08:08:34.261Z,21.00
2018-06-17T08:11:04.344Z,20.80
2018-06-17T08:13:33.835Z,21.20
2018-06-17T08:16:03.197Z,21.80
2018-06-17T08:18:32.492Z,22.20
2018-06-17T08:21:01.722Z,22.20
2018-06-17T08:23:30.933Z,22.20
2018-06-17T08:28:29.152Z,21.90
2018-06-17T08:30:58.715Z,21.80
2018-06-17T08:33:27.926Z,21.70
2018-06-17T08:35:57.092Z,21.40
2018-06-17T08:38:26.493Z,21.30
2018-06-17T08:40:57.086Z,21.20
2018-06-17T08:45:55.783Z,21.20
2018-06-17T08:50:54.464Z,21.60
2018-06-17T08:53:27.110Z,21.90
2018-06-17T08:55:56.721Z,22.00
2018-06-17T08:58:35.510Z,22.50
2018-06-17T09:01:10.855Z,22.30
2018-06-17T09:03:46.084Z,22.30
2018-06-17T09:06:16.227Z,21.90
2018-06-17T09:08:45.827Z,21.80
2018-06-17T09:11:15.933Z,22.10
2018-06-17T09:13:45.292Z,22.20
2018-06-17T09:16:14.823Z,21.80
2018-06-17T09:18:44.213Z,21.90
2018-06-17T09:21:13.492Z,21.90
2018-06-17T09:23:42.981Z,22.00
2018-06-17T09:26:13.112Z,22.40
2018-06-17T09:28:43.130Z,22.80
2018-06-17T09:31:12.965Z,23.60
2018-06-17T09:33:49.137Z,24.20
2018-06-17T09:36:44.993Z,24.70
2018-06-17T09:39:14.493Z,24.70
2018-06-17T09:44:13.161Z,23.70
2018-06-17T09:46:44.127Z,23.50
2018-06-17T09:49:15.115Z,23.40
2018-06-17T09:51:44.162Z,23.90
2018-06-17T09:54:14.253Z,24.40
2018-06-17T09:56:43.790Z,24.20
2018-06-17T09:59:14.546Z,24.20
2018-06-17T10:01:45.404Z,23.80
2018-06-17T10:04:14.962Z,23.60
2018-06-17T10:06:44.486Z,23.70
2018-06-17T10:09:16.992Z,23.60
2018-06-17T10:12:10.750Z,23.60
2018-06-17T10:14:41.322Z,23.20
2018-06-17T10:17:16.178Z,23.60
2018-06-17T10:19:45.376Z,23.70
2018-06-17T10:22:15.740Z,23.70
2018-06-17T10:24:45.414Z,23.50
2018-06-17T10:27:14.558Z,23.20
2018-06-17T10:29:44.016Z,23.10
2018-06-17T10:34:42.502Z,24.90
2018-06-17T10:37:13.540Z,25.20
2018-06-17T10:39:44.017Z,25.50
2018-06-17T10:42:13.570Z,25.50
2018-06-17T10:44:43.329Z,25.30
2018-06-17T10:47:12.803Z,24.90
2018-06-17T10:49:42.178Z,24.50
2018-06-17T10:54:47.110Z,26.20
2018-06-17T10:57:16.755Z,26.80
2018-06-17T10:59:46.416Z,26.50
2018-06-17T11:02:15.863Z,26.30
2018-06-17T11:04:45.607Z,27.00
2018-06-17T11:07:15.233Z,27.10
2018-06-17T11:09:45.185Z,26.70
2018-06-17T11:12:15.133Z,26.30
2018-06-17T11:17:14.734Z,24.50
2018-06-17T11:19:44.724Z,24.30
2018-06-17T11:22:14.198Z,25.10
2018-06-17T11:24:44.002Z,26.50
2018-06-17T11:27:13.602Z,26.90
2018-06-17T11:32:12.256Z,27.00
2018-06-17T11:34:43.388Z,25.60
2018-06-17T11:37:12.754Z,24.70
2018-06-17T11:42:11.133Z,23.90
2018-06-17T11:44:41.215Z,23.40
2018-06-17T11:47:10.875Z,23.10
2018-06-17T11:49:41.299Z,23.00
2018-06-17T11:52:10.396Z,23.10
2018-06-17T11:54:39.992Z,23.00
2018-06-17T11:57:12.584Z,22.50
2018-06-17T11:59:43.320Z,22.40
2018-06-17T12:02:17.550Z,22.20
2018-06-17T12:07:25.279Z,22.50
2018-06-17T12:09:54.567Z,22.70
2018-06-17T12:12:24.713Z,22.80
2018-06-17T12:14:56.848Z,22.60
2018-06-17T12:20:14.700Z,22.40
2018-06-17T12:27:44.560Z,21.60
2018-06-17T12:30:13.654Z,21.40
2018-06-17T12:32:43.875Z,21.90
2018-06-17T12:35:15.187Z,22.70
2018-06-17T12:37:45.995Z,23.10
2018-06-17T12:43:43.045Z,22.80
2018-06-17T12:46:16.601Z,22.10
2018-06-17T12:48:46.887Z,21.70
2018-06-17T12:51:16.968Z,21.70
2018-06-17T12:53:47.140Z,21.50
2018-06-17T12:56:16.942Z,21.20
2018-06-17T12:58:46.610Z,21.20
2018-06-17T13:01:15.776Z,21.50
2018-06-17T13:03:52.979Z,21.60
2018-06-17T13:06:23.943Z,21.70
2018-06-17T13:08:53.375Z,21.40
2018-06-17T13:11:23.479Z,21.40
2018-06-17T13:13:52.968Z,21.50
2018-06-17T13:16:23.035Z,21.10
2018-06-17T13:18:54.142Z,21.10
2018-06-17T13:21:24.633Z,21.20
2018-06-17T13:23:57.394Z,21.60
2018-06-17T13:26:36.473Z,21.80
2018-06-17T13:29:17.736Z,21.60
2018-06-17T13:31:47.517Z,21.30
2018-06-17T13:34:17.360Z,21.30
2018-06-17T13:36:58.520Z,21.70
2018-06-17T13:39:41.819Z,22.10
2018-06-17T13:42:18.575Z,21.90
2018-06-17T13:44:48.425Z,22.40
2018-06-17T13:47:19.699Z,22.60
2018-06-17T13:49:49.286Z,22.70
2018-06-17T13:52:18.464Z,22.30
2018-06-17T13:54:48.535Z,21.70
2018-06-17T13:57:23.206Z,21.80
2018-06-17T13:59:57.399Z,22.10
2018-06-17T14:02:43.207Z,22.20
2018-06-17T14:05:13.520Z,22.00
2018-06-17T14:07:43.855Z,21.50
2018-06-17T14:10:13.806Z,21.40
2018-06-17T14:12:43.807Z,21.60
2018-06-17T14:15:14.014Z,21.90
2018-06-17T14:21:05.344Z,21.40
2018-06-17T14:23:47.620Z,21.20
2018-06-17T14:26:37.481Z,20.90
2018-06-17T14:29:18.692Z,21.00
2018-06-17T14:31:55.338Z,21.20
2018-06-17T14:34:25.835Z,21.30
2018-06-17T14:36:57.294Z,21.20
2018-06-17T14:39:27.050Z,21.30
2018-06-17T14:42:02.403Z,21.50
2018-06-17T14:44:36.809Z,21.60
2018-06-17T14:47:19.585Z,21.30
2018-06-17T14:49:57.714Z,20.60
2018-06-17T14:52:31.337Z,20.70
2018-06-17T14:55:06.443Z,20.80
2018-06-17T14:57:37.144Z,20.70
2018-06-17T15:00:06.628Z,20.50
2018-06-17T15:02:35.858Z,20.50
2018-06-17T15:05:05.576Z,20.50
2018-06-17T15:07:35.219Z,20.90
2018-06-17T15:10:10.558Z,21.30
2018-06-17T15:12:40.040Z,21.30
2018-06-17T15:15:09.792Z,21.10
2018-06-17T15:17:39.600Z,21.10
2018-06-17T15:20:09.178Z,21.00
2018-06-17T15:22:38.970Z,20.50
2018-06-17T15:25:08.995Z,20.20
2018-06-17T15:27:38.631Z,20.40
2018-06-17T15:30:08.320Z,20.60
2018-06-17T15:32:44.287Z,20.80
2018-06-17T15:35:22.939Z,20.70
2018-06-17T15:37:57.444Z,20.60
2018-06-17T15:40:32.007Z,20.60
2018-06-17T15:43:02.565Z,20.40
2018-06-17T15:45:32.624Z,20.20
2018-06-17T15:48:03.495Z,20.40
2018-06-17T15:50:33.733Z,20.20
2018-06-17T15:53:04.582Z,20.50
2018-06-17T15:55:38.737Z,20.00
2018-06-17T15:58:08.109Z,20.00
2018-06-17T16:00:39.782Z,20.20
2018-06-17T16:03:18.737Z,20.50
2018-06-17T16:05:59.983Z,20.50
2018-06-17T16:08:33.410Z,20.60
2018-06-17T16:11:03.525Z,20.60
2018-06-17T16:13:38.358Z,20.60
2018-06-17T16:16:12.961Z,20.60
2018-06-17T16:21:34.775Z,20.20
2018-06-17T16:24:22.713Z,20.40
2018-06-17T16:27:01.817Z,20.50
2018-06-17T16:29:39.648Z,20.50
2018-06-17T16:32:18.950Z,20.40
2018-06-17T16:34:49.538Z,20.60
2018-06-17T16:37:23.738Z,20.60
2018-06-17T16:40:12.566Z,20.10
2018-06-17T16:42:54.739Z,20.10
2018-06-17T16:45:24.539Z,19.90
2018-06-17T16:47:56.257Z,19.70
2018-06-17T16:50:28.783Z,19.60
2018-06-17T16:53:06.975Z,19.70
2018-06-17T16:55:58.103Z,19.80
2018-06-17T16:58:42.824Z,19.80
2018-06-17T17:01:28.749Z,19.90
2018-06-17T17:07:06.550Z,19.90
2018-06-17T17:10:03.491Z,19.90
2018-06-17T17:12:37.819Z,19.80
2018-06-17T17:15:09.035Z,19.60
2018-06-17T17:17:39.819Z,19.40
2018-06-17T17:20:14.171Z,19.40
2018-06-17T17:22:43.645Z,19.70
2018-06-17T17:25:23.835Z,19.60
2018-06-17T17:28:00.137Z,19.50
2018-06-17T17:30:32.625Z,19.60
2018-06-17T17:33:07.139Z,19.50
2018-06-17T17:35:53.280Z,19.60
2018-06-17T17:38:44.569Z,19.70
2018-06-17T17:41:20.657Z,19.80
2018-06-17T17:43:58.198Z,19.90
2018-06-17T17:46:37.855Z,19.90
2018-06-17T17:49:16.102Z,19.90
2018-06-17T17:51:49.230Z,19.70
2018-06-17T17:54:20.407Z,19.60
2018-06-17T17:57:09.668Z,19.70
2018-06-17T17:59:49.908Z,19.70
2018-06-17T18:02:19.932Z,19.80
2018-06-17T18:04:55.489Z,19.80
2018-06-17T18:07:32.654Z,19.70
2018-06-17T18:10:06.756Z,19.70
2018-06-17T18:12:37.321Z,19.60
2018-06-17T18:15:21.132Z,19.60
2018-06-17T18:17:54.618Z,19.70
2018-06-17T18:20:53.515Z,19.70
2018-06-17T18:23:49.372Z,19.60
2018-06-17T18:26:38.544Z,19.70
2018-06-17T18:34:10.525Z,19.70
2018-06-17T18:36:40.502Z,19.70
2018-06-17T18:39:12.329Z,19.70
2018-06-17T18:41:42.350Z,19.50
2018-06-17T18:44:16.770Z,19.50
2018-06-17T18:46:47.751Z,19.50
2018-06-17T18:49:42.093Z,19.40
2018-06-17T18:52:18.644Z,19.30
2018-06-17T18:57:18.613Z,19.20
2018-06-17T18:59:56.422Z,19.20
2018-06-17T19:05:46.361Z,19.20
2018-06-17T19:08:21.841Z,19.00
2018-06-17T19:10:59.116Z,18.90
2018-06-17T19:13:34.878Z,18.90
2018-06-17T19:16:13.280Z,18.70
2018-06-17T19:18:42.470Z,18.60
2018-06-17T19:21:13.821Z,18.50
2018-06-17T19:23:44.479Z,18.70
2018-06-17T19:26:14.672Z,18.70
2018-06-17T19:28:44.484Z,18.70
2018-06-17T19:31:13.790Z,18.70
2018-06-17T19:33:47.368Z,18.60
2018-06-17T19:36:16.909Z,18.60
2018-06-17T19:38:46.516Z,18.60
2018-06-17T19:41:19.692Z,18.60
2018-06-17T19:46:34.752Z,18.70
2018-06-17T19:49:08.859Z,18.70
2018-06-17T19:51:45.157Z,18.70
2018-06-17T19:54:22.204Z,18.80
2018-06-17T19:56:57.392Z,18.90
2018-06-17T20:02:02.712Z,18.90
2018-06-17T20:04:32.238Z,18.80
2018-06-17T20:07:12.306Z,18.90
2018-06-17T20:09:45.172Z,18.90
2018-06-17T20:12:22.592Z,18.90
2018-06-17T20:14:52.621Z,18.90
2018-06-17T20:17:22.159Z,18.90
2018-06-17T20:19:52.186Z,19.10
2018-06-17T20:22:21.661Z,19.10
2018-06-17T20:24:50.813Z,19.10
2018-06-17T20:27:20.414Z,18.90
2018-06-17T20:29:54.236Z,18.80
2018-06-17T20:32:29.122Z,18.80
2018-06-17T20:35:03.415Z,18.80
2018-06-17T20:37:37.907Z,18.90
2018-06-17T20:40:12.191Z,18.90
2018-06-17T20:43:48.553Z,18.90
2018-06-17T20:46:23.798Z,18.90
2018-06-17T20:48:53.459Z,18.80
2018-06-17T20:51:22.755Z,18.80
2018-06-17T20:53:51.802Z,18.80
2018-06-17T20:56:20.797Z,18.70
2018-06-17T20:58:50.075Z,18.70
2018-06-17T21:01:19.991Z,18.60
2018-06-17T21:03:49.520Z,18.60
2018-06-17T21:06:19.155Z,18.50
2018-06-17T21:08:51.852Z,18.50
2018-06-17T21:11:35.637Z,18.40
2018-06-17T21:14:13.107Z,18.50
2018-06-17T21:16:56.353Z,18.60
2018-06-17T21:19:31.512Z,18.60
2018-06-17T21:22:41.822Z,18.50
2018-06-17T21:25:30.538Z,18.50
2018-06-17T21:28:01.746Z,18.40
2018-06-17T21:30:33.097Z,18.40
2018-06-17T21:33:04.600Z,18.40
2018-06-17T21:35:34.353Z,18.40
2018-06-17T21:38:04.882Z,18.30
2018-06-17T21:40:34.484Z,18.30
2018-06-17T21:43:03.599Z,18.30
2018-06-17T21:45:33.288Z,18.30
2018-06-17T21:48:03.432Z,18.20
2018-06-17T21:50:36.841Z,18.20
2018-06-17T21:53:32.303Z,18.20
2018-06-17T21:58:37.887Z,18.20
2018-06-17T22:03:37.978Z,18.20
2018-06-17T22:06:07.169Z,18.20
2018-06-17T22:08:41.819Z,18.10
2018-06-17T22:13:51.631Z,18.10
2018-06-17T22:16:27.386Z,18.10
2018-06-17T22:18:58.514Z,18.10
2018-06-17T22:21:27.848Z,18.10
2018-06-17T22:23:57.006Z,18.10
2018-06-17T22:26:26.131Z,18.10
2018-06-17T22:28:55.462Z,18.10
2018-06-17T22:31:25.465Z,18.10
2018-06-17T22:33:54.810Z,18.00
2018-06-17T22:36:24.265Z,18.00
2018-06-17T22:38:53.361Z,18.00
2018-06-17T22:41:22.401Z,18.00
2018-06-17T22:43:53.987Z,17.90
2018-06-17T22:46:23.348Z,17.80
2018-06-17T22:48:52.701Z,17.80
2018-06-17T22:51:22.023Z,17.80
2018-06-17T22:54:02.224Z,17.80
2018-06-17T22:56:40.441Z,17.80
2018-06-17T22:59:17.932Z,17.70
2018-06-17T23:01:56.827Z,17.70
2018-06-17T23:04:31.758Z,17.60
2018-06-17T23:07:06.131Z,17.60
2018-06-17T23:12:09.233Z,17.60
2018-06-17T23:14:51.048Z,17.60
2018-06-17T23:17:21.413Z,17.60
2018-06-17T23:20:01.333Z,17.50
2018-06-17T23:22:31.952Z,17.40
2018-06-17T23:25:01.043Z,17.40
2018-06-17T23:27:30.207Z,17.40
2018-06-17T23:30:00.413Z,17.40
2018-06-17T23:32:33.478Z,17.40
2018-06-17T23:35:04.360Z,17.30
2018-06-17T23:37:34.272Z,17.30
2018-06-17T23:42:32.502Z,17.30
2018-06-17T23:45:02.765Z,17.30
2018-06-17T23:47:38.991Z,17.30
2018-06-17T23:50:14.066Z,17.30
2018-06-17T23:52:48.925Z,17.30
2018-06-17T23:55:23.856Z,17.20
2018-06-17T23:57:55.639Z,17.20
